Time;durP1;ratioP1;P1;durP2;ratioP2;P2;SDS_P1;SDS_P2;PMS_P1;PMS_P2;Temp;Humidity;BMP_temperature;BMP_pressure;BME280_temperature;BME280_humidity;BME280_pressure;Samples;Min_cycle;Max_cycle;Signal;HPM_P1;HPM_P2
2023/10/19 00:01:15;;;;;;;19.63;11.13;;;;;;;;;;743132;186;918926;-64
2023/10/19 00:03:40;;;;;;;19.40;12.60;;;;;;;;;;769867;181;823502;-64
2023/10/19 00:06:05;;;;;;;24.87;16.00;;;;;;;;;;773659;182;920650;-62
2023/10/19 00:08:41;;;;;;;20.57;14.37;;;;;;;;;;768289;181;919376;-64
2023/10/19 00:11:07;;;;;;;19.83;13.93;;;;;;;;;;765880;180;918942;-62
2023/10/19 00:13:30;;;;;;;19.63;12.13;;;;;;;;;;764633;180;917034;-65
2023/10/19 00:15:57;;;;;;;18.77;13.10;;;;;;;;;;775175;181;885076;-64
2023/10/19 00:18:22;;;;;;;21.80;12.77;;;;;;;;;;768717;181;919217;-63
2023/10/19 00:20:52;;;;;;;26.03;13.63;;;;;;;;;;767150;181;919088;-66
2023/10/19 00:23:18;;;;;;;20.30;11.70;;;;;;;;;;779456;178;889383;-65
2023/10/19 00:25:44;;;;;;;18.50;13.20;;;;;;;;;;772721;180;919842;-64
2023/10/19 00:28:12;;;;;;;20.90;14.17;;;;;;;;;;758845;180;918163;-62
2023/10/19 00:30:36;;;;;;;19.83;12.70;;;;;;;;;;763223;181;921853;-63
2023/10/19 00:33:09;;;;;;;20.47;13.07;;;;;;;;;;758657;184;919659;-64
2023/10/19 00:35:35;;;;;;;22.90;13.50;;;;;;;;;;754440;183;919974;-65
2023/10/19 00:40:47;;;;;;;18.97;12.37;;;;;;;;;;761988;181;919674;-66
2023/10/19 00:43:11;;;;;;;21.73;14.07;;;;;;;;;;767282;180;1137844;-63
2023/10/19 00:45:39;;;;;;;19.70;12.70;;;;;;;;;;775102;181;918103;-65
2023/10/19 00:48:04;;;;;;;19.00;13.20;;;;;;;;;;766638;181;910789;-65
2023/10/19 00:50:30;;;;;;;23.80;13.67;;;;;;;;;;764756;180;921477;-62
2023/10/19 00:52:57;;;;;;;21.17;12.97;;;;;;;;;;772244;178;934788;-63
2023/10/19 00:55:21;;;;;;;20.52;13.20;;;;;;;;;;769415;179;916325;-64
2023/10/19 00:57:48;;;;;;;23.87;15.03;;;;;;;;;;768855;180;914491;-63
2023/10/19 01:00:13;;;;;;;20.13;11.67;;;;;;;;;;771928;182;914716;-67
2023/10/19 01:02:45;;;;;;;20.87;12.57;;;;;;;;;;765709;181;911388;-68
2023/10/19 01:05:14;;;;;;;17.40;12.23;;;;;;;;;;766822;181;918688;-63
2023/10/19 01:07:41;;;;;;;20.20;12.83;;;;;;;;;;764549;182;918897;-63
2023/10/19 01:10:08;;;;;;;20.87;12.97;;;;;;;;;;752031;185;919292;-63
2023/10/19 01:12:39;;;;;;;18.77;12.67;;;;;;;;;;754604;182;903281;-68
2023/10/19 01:15:17;;;;;;;18.10;11.80;;;;;;;;;;738917;187;918925;-68
2023/10/19 01:17:44;;;;;;;19.90;13.43;;;;;;;;;;750578;183;964203;-68
2023/10/19 01:20:18;;;;;;;22.27;12.30;;;;;;;;;;768457;180;919126;-65
2023/10/19 01:22:38;;;;;;;20.73;12.87;;;;;;;;;;774509;180;911780;-65
2023/10/19 01:25:10;;;;;;;19.67;13.70;;;;;;;;;;768383;180;913687;-65
2023/10/19 01:27:31;;;;;;;22.20;13.77;;;;;;;;;;766532;180;910383;-65
2023/10/19 01:30:00;;;;;;;18.60;11.90;;;;;;;;;;774946;178;800569;-65
2023/10/19 01:32:22;;;;;;;18.77;12.40;;;;;;;;;;772264;180;908451;-65
2023/10/19 01:34:48;;;;;;;19.20;11.17;;;;;;;;;;770673;181;915406;-65
2023/10/19 01:37:14;;;;;;;18.03;11.80;;;;;;;;;;773611;181;909308;-66
2023/10/19 01:39:42;;;;;;;19.83;12.53;;;;;;;;;;768760;181;920339;-65
2023/10/19 01:42:08;;;;;;;14.90;11.33;;;;;;;;;;768022;180;916160;-71
2023/10/19 01:44:33;;;;;;;15.70;11.20;;;;;;;;;;765360;178;918857;-70
2023/10/19 01:47:00;;;;;;;18.93;11.20;;;;;;;;;;776259;178;816445;-70
2023/10/19 01:49:26;;;;;;;15.53;10.30;;;;;;;;;;769435;178;918918;-70
2023/10/19 01:51:52;;;;;;;18.40;12.17;;;;;;;;;;769853;181;919539;-64
2023/10/19 01:54:22;;;;;;;16.03;10.67;;;;;;;;;;776724;181;918557;-70
2023/10/19 01:56:44;;;;;;;16.77;12.07;;;;;;;;;;772445;181;918948;-70
2023/10/19 01:59:09;;;;;;;16.63;10.53;;;;;;;;;;767995;180;919237;-69
2023/10/19 02:01:37;;;;;;;18.13;11.57;;;;;;;;;;756348;185;916750;-70
2023/10/19 02:04:02;;;;;;;24.57;14.43;;;;;;;;;;753527;181;919872;-64
2023/10/19 02:06:36;;;;;;;20.10;12.23;;;;;;;;;;769592;181;915165;-68
2023/10/19 02:08:56;;;;;;;18.60;10.97;;;;;;;;;;767608;180;915130;-64
2023/10/19 02:11:22;;;;;;;14.23;11.10;;;;;;;;;;758783;185;918506;-64
2023/10/19 02:13:49;;;;;;;18.77;11.63;;;;;;;;;;770874;181;919212;-64
2023/10/19 02:16:15;;;;;;;15.85;10.65;;;;;;;;;;769601;181;918517;-64
2023/10/19 02:18:40;;;;;;;21.43;10.47;;;;;;;;;;775648;181;917300;-69
2023/10/19 02:21:06;;;;;;;18.30;11.50;;;;;;;;;;765696;181;919400;-69
2023/10/19 02:23:33;;;;;;;18.40;12.40;;;;;;;;;;771527;180;918764;-64
2023/10/19 02:25:57;;;;;;;14.33;10.63;;;;;;;;;;775145;181;916407;-64
2023/10/19 02:28:29;;;;;;;19.67;12.57;;;;;;;;;;769563;181;914724;-68
2023/10/19 02:30:50;;;;;;;16.63;12.87;;;;;;;;;;764996;178;916090;-69
2023/10/19 02:33:15;;;;;;;17.10;11.40;;;;;;;;;;770277;180;923798;-65
2023/10/19 02:35:41;;;;;;;16.23;11.67;;;;;;;;;;758376;185;912473;-68
2023/10/19 02:38:07;;;;;;;17.50;10.70;;;;;;;;;;766572;181;921448;-68
2023/10/19 02:40:32;;;;;;;19.80;12.37;;;;;;;;;;763158;182;937179;-68
2023/10/19 02:43:03;;;;;;;17.00;11.97;;;;;;;;;;758843;185;920405;-64
2023/10/19 02:45:30;;;;;;;16.10;10.90;;;;;;;;;;754745;182;917131;-65
2023/10/19 02:47:52;;;;;;;21.23;11.73;;;;;;;;;;767342;181;917839;-69
2023/10/19 02:50:22;;;;;;;17.40;12.27;;;;;;;;;;754864;183;922212;-68
2023/10/19 02:52:44;;;;;;;18.33;13.10;;;;;;;;;;769341;180;911630;-66
2023/10/19 02:55:10;;;;;;;16.07;11.20;;;;;;;;;;763976;181;917182;-68
2023/10/19 02:57:35;;;;;;;16.70;11.40;;;;;;;;;;768988;181;911300;-69
2023/10/19 03:00:07;;;;;;;16.47;10.53;;;;;;;;;;761019;183;948128;-69
2023/10/19 03:02:27;;;;;;;15.30;11.00;;;;;;;;;;767004;180;914745;-65
2023/10/19 03:04:53;;;;;;;22.50;12.50;;;;;;;;;;769006;181;920837;-65
2023/10/19 03:07:19;;;;;;;16.23;10.80;;;;;;;;;;771630;181;914907;-68
2023/10/19 03:09:49;;;;;;;19.85;11.93;;;;;;;;;;770082;180;921038;-68
2023/10/19 03:12:14;;;;;;;18.20;12.47;;;;;;;;;;769207;181;925749;-68
2023/10/19 03:14:41;;;;;;;18.50;11.90;;;;;;;;;;778666;179;915338;-68
2023/10/19 03:17:08;;;;;;;20.60;11.40;;;;;;;;;;768250;180;916377;-67
2023/10/19 03:19:34;;;;;;;15.80;11.07;;;;;;;;;;770751;178;919168;-64
2023/10/19 03:22:00;;;;;;;18.40;12.03;;;;;;;;;;768816;180;920102;-65
2023/10/19 03:26:59;;;;;;;15.65;11.05;;;;;;;;;;754130;182;917693;-64
2023/10/19 03:29:30;;;;;;;21.53;12.03;;;;;;;;;;770216;182;945478;-65
2023/10/19 03:31:49;;;;;;;17.00;11.87;;;;;;;;;;774595;181;917888;-65
2023/10/19 03:34:17;;;;;;;21.10;12.70;;;;;;;;;;767238;181;914682;-68
2023/10/19 03:36:43;;;;;;;14.60;10.77;;;;;;;;;;767802;180;913068;-65
2023/10/19 03:39:13;;;;;;;16.70;11.37;;;;;;;;;;768271;180;915352;-65
2023/10/19 03:41:39;;;;;;;17.62;12.02;;;;;;;;;;776753;178;914803;-68
2023/10/19 03:44:04;;;;;;;15.93;11.00;;;;;;;;;;768940;181;914810;-68
2023/10/19 03:46:31;;;;;;;21.33;11.50;;;;;;;;;;768713;180;818648;-69
2023/10/19 03:49:04;;;;;;;17.23;11.53;;;;;;;;;;775599;181;917068;-68
2023/10/19 03:51:26;;;;;;;19.20;13.53;;;;;;;;;;765041;181;816713;-65
2023/10/19 03:53:58;;;;;;;20.43;12.90;;;;;;;;;;767633;182;916064;-66
2023/10/19 03:56:21;;;;;;;19.90;12.87;;;;;;;;;;767687;181;918865;-65
2023/10/19 03:58:50;;;;;;;19.23;12.00;;;;;;;;;;774029;180;816200;-65
2023/10/19 04:01:12;;;;;;;17.33;11.60;;;;;;;;;;770510;181;899076;-69
2023/10/19 04:03:38;;;;;;;17.23;11.17;;;;;;;;;;769673;180;816615;-64
2023/10/19 04:06:05;;;;;;;18.47;12.33;;;;;;;;;;756989;185;919454;-64
2023/10/19 04:08:35;;;;;;;19.27;11.87;;;;;;;;;;768035;179;897351;-65
2023/10/19 04:13:27;;;;;;;14.00;11.20;;;;;;;;;;770339;178;920080;-68
2023/10/19 04:15:53;;;;;;;23.37;12.00;;;;;;;;;;769468;181;909314;-69
2023/10/19 04:18:19;;;;;;;18.90;11.47;;;;;;;;;;770371;181;918838;-67
2023/10/19 04:20:58;;;;;;;16.93;11.07;;;;;;;;;;769782;180;919356;-68
2023/10/19 04:23:26;;;;;;;16.73;11.30;;;;;;;;;;756251;183;919383;-63
2023/10/19 04:25:51;;;;;;;18.80;11.53;;;;;;;;;;773521;181;920927;-67
2023/10/19 04:28:22;;;;;;;18.97;11.80;;;;;;;;;;768596;181;917797;-68
2023/10/19 04:30:43;;;;;;;17.40;11.47;;;;;;;;;;771178;181;817173;-68
2023/10/19 04:33:10;;;;;;;16.77;12.65;;;;;;;;;;755740;184;906010;-67
2023/10/19 04:35:35;;;;;;;16.30;11.70;;;;;;;;;;746580;188;819171;-66
2023/10/19 04:38:01;;;;;;;21.23;11.73;;;;;;;;;;770189;181;888742;-64
2023/10/19 04:40:27;;;;;;;18.27;11.00;;;;;;;;;;774803;181;634058;-68
2023/10/19 04:42:53;;;;;;;24.20;12.97;;;;;;;;;;759743;185;630080;-66
2023/10/19 04:45:19;;;;;;;19.23;12.67;;;;;;;;;;774290;181;626852;-69
2023/10/19 04:47:46;;;;;;;20.20;12.27;;;;;;;;;;776339;178;631106;-66
2023/10/19 04:50:11;;;;;;;23.17;14.37;;;;;;;;;;774922;181;629162;-70
2023/10/19 04:52:37;;;;;;;19.43;14.17;;;;;;;;;;772094;180;636502;-66
2023/10/19 04:55:03;;;;;;;19.57;13.20;;;;;;;;;;773074;180;613310;-69
2023/10/19 04:57:28;;;;;;;19.30;13.87;;;;;;;;;;774951;181;640081;-66
2023/10/19 04:59:55;;;;;;;20.07;13.67;;;;;;;;;;775269;178;631788;-69
2023/10/19 05:02:20;;;;;;;17.43;11.83;;;;;;;;;;768591;181;621372;-66
2023/10/19 05:04:46;;;;;;;16.40;10.20;;;;;;;;;;772195;180;634969;-68
2023/10/19 05:07:14;;;;;;;15.50;10.83;;;;;;;;;;777216;181;634967;-65
2023/10/19 05:09:39;;;;;;;16.40;10.20;;;;;;;;;;772028;178;909590;-65
2023/10/19 05:12:06;;;;;;;14.17;10.90;;;;;;;;;;764853;181;917066;-64
2023/10/19 05:14:30;;;;;;;18.53;10.80;;;;;;;;;;766375;181;914370;-68
2023/10/19 05:16:56;;;;;;;17.77;11.77;;;;;;;;;;773400;180;757558;-69
2023/10/19 05:19:22;;;;;;;16.23;12.73;;;;;;;;;;768813;180;921147;-68
2023/10/19 05:21:47;;;;;;;31.17;11.47;;;;;;;;;;772429;178;919100;-69
2023/10/19 05:24:13;;;;;;;17.97;10.93;;;;;;;;;;771912;179;912085;-64
2023/10/19 05:26:39;;;;;;;21.20;11.93;;;;;;;;;;772531;181;919387;-65
2023/10/19 05:29:05;;;;;;;17.30;11.17;;;;;;;;;;769302;181;933400;-68
2023/10/19 05:31:31;;;;;;;16.70;11.63;;;;;;;;;;762079;184;955912;-66
2023/10/19 05:33:57;;;;;;;17.00;10.60;;;;;;;;;;765699;182;1124438;-65
2023/10/19 05:36:22;;;;;;;15.07;10.87;;;;;;;;;;767373;180;918194;-65
2023/10/19 05:38:51;;;;;;;18.13;12.30;;;;;;;;;;769969;181;854630;-68
2023/10/19 05:41:14;;;;;;;23.50;11.37;;;;;;;;;;771033;180;916304;-65
2023/10/19 05:43:41;;;;;;;23.83;11.77;;;;;;;;;;769518;181;917035;-65
2023/10/19 05:46:06;;;;;;;16.00;11.47;;;;;;;;;;772846;181;902167;-66
2023/10/19 05:48:32;;;;;;;15.53;11.27;;;;;;;;;;766051;181;918728;-65
2023/10/19 05:50:58;;;;;;;26.00;15.20;;;;;;;;;;768195;181;919229;-69
2023/10/19 05:53:23;;;;;;;29.73;19.03;;;;;;;;;;770196;180;830427;-69
2023/10/19 05:55:49;;;;;;;24.53;14.80;;;;;;;;;;770239;180;918536;-69
2023/10/19 05:58:16;;;;;;;20.50;12.70;;;;;;;;;;772209;178;921280;-67
2023/10/19 06:00:41;;;;;;;25.50;16.53;;;;;;;;;;774074;180;815155;-66
2023/10/19 06:03:07;;;;;;;21.20;13.23;;;;;;;;;;755835;184;918631;-68
2023/10/19 06:05:47;;;;;;;20.92;14.30;;;;;;;;;;755914;185;918402;-65
2023/10/19 06:08:14;;;;;;;38.53;14.20;;;;;;;;;;733039;189;916807;-70
2023/10/19 06:10:39;;;;;;;20.03;13.10;;;;;;;;;;729065;189;918713;-70
2023/10/19 06:13:09;;;;;;;18.80;13.73;;;;;;;;;;751035;186;918554;-71
2023/10/19 06:15:32;;;;;;;22.17;13.63;;;;;;;;;;741167;187;920079;-70
2023/10/19 06:17:56;;;;;;;16.30;13.13;;;;;;;;;;744823;187;919076;-71
2023/10/19 06:20:26;;;;;;;21.47;13.90;;;;;;;;;;751116;186;913948;-70
2023/10/19 06:22:51;;;;;;;20.60;15.50;;;;;;;;;;746956;186;915930;-71
2023/10/19 06:25:18;;;;;;;21.50;14.98;;;;;;;;;;745611;186;1018701;-71
2023/10/19 06:27:43;;;;;;;19.17;13.62;;;;;;;;;;752476;185;919011;-71
2023/10/19 06:30:10;;;;;;;17.37;12.77;;;;;;;;;;752862;184;913981;-72
2023/10/19 06:32:36;;;;;;;19.43;13.83;;;;;;;;;;741390;187;915231;-72
2023/10/19 06:35:01;;;;;;;20.55;13.10;;;;;;;;;;748502;184;918802;-73
2023/10/19 06:37:27;;;;;;;18.10;14.07;;;;;;;;;;753012;186;912792;-72
2023/10/19 06:39:53;;;;;;;18.77;13.60;;;;;;;;;;747306;186;919487;-72
2023/10/19 06:42:19;;;;;;;19.83;13.97;;;;;;;;;;746805;185;1013301;-72
2023/10/19 06:44:45;;;;;;;19.40;14.47;;;;;;;;;;751747;186;920514;-74
2023/10/19 06:47:12;;;;;;;21.40;16.67;;;;;;;;;;744973;186;919053;-73
2023/10/19 06:49:37;;;;;;;18.73;14.93;;;;;;;;;;748188;186;919618;-73
2023/10/19 06:52:04;;;;;;;18.10;15.60;;;;;;;;;;752763;186;916504;-72
2023/10/19 06:54:29;;;;;;;24.40;16.00;;;;;;;;;;745281;186;920420;-72
2023/10/19 06:56:55;;;;;;;22.23;15.70;;;;;;;;;;744306;187;940645;-73
2023/10/19 06:59:20;;;;;;;22.73;17.13;;;;;;;;;;745010;186;924643;-71
2023/10/19 07:01:46;;;;;;;26.02;16.23;;;;;;;;;;750514;185;909925;-72
2023/10/19 07:04:12;;;;;;;19.50;14.73;;;;;;;;;;746510;186;921982;-72
2023/10/19 07:06:38;;;;;;;19.17;15.70;;;;;;;;;;746967;185;920171;-72
2023/10/19 07:09:05;;;;;;;22.23;15.53;;;;;;;;;;754864;185;923955;-72
2023/10/19 07:11:29;;;;;;;18.10;14.23;;;;;;;;;;743924;186;1021298;-72
2023/10/19 07:13:55;;;;;;;20.15;14.85;;;;;;;;;;742810;186;1018860;-72
2023/10/19 07:16:22;;;;;;;18.17;14.00;;;;;;;;;;748749;185;915516;-72
2023/10/19 07:18:47;;;;;;;26.80;15.57;;;;;;;;;;745823;186;918782;-73
2023/10/19 07:21:13;;;;;;;17.90;12.55;;;;;;;;;;741656;186;919797;-71
2023/10/19 07:23:40;;;;;;;25.97;14.70;;;;;;;;;;747432;187;923424;-72
2023/10/19 07:26:05;;;;;;;18.67;14.40;;;;;;;;;;756327;182;917933;-72
2023/10/19 07:28:31;;;;;;;23.37;15.33;;;;;;;;;;745165;187;920170;-72
2023/10/19 07:30:56;;;;;;;21.30;16.47;;;;;;;;;;748773;186;1016081;-72
2023/10/19 07:33:22;;;;;;;17.90;13.87;;;;;;;;;;750954;187;917643;-73
2023/10/19 07:35:52;;;;;;;17.50;13.90;;;;;;;;;;742346;186;918752;-73
2023/10/19 07:38:14;;;;;;;21.73;13.75;;;;;;;;;;743932;187;1019288;-72
2023/10/19 07:40:40;;;;;;;17.90;12.83;;;;;;;;;;751850;186;919238;-72
2023/10/19 07:43:06;;;;;;;52.90;14.83;;;;;;;;;;747116;185;918703;-72
2023/10/19 07:45:31;;;;;;;20.80;15.03;;;;;;;;;;747473;185;917409;-72
2023/10/19 07:47:57;;;;;;;17.63;14.07;;;;;;;;;;751558;186;917315;-72
2023/10/19 07:50:23;;;;;;;17.90;13.33;;;;;;;;;;746184;185;918000;-72
2023/10/19 07:52:50;;;;;;;21.33;13.90;;;;;;;;;;746240;185;918075;-72
2023/10/19 07:55:16;;;;;;;19.63;14.70;;;;;;;;;;742876;185;920502;-71
2023/10/19 07:57:42;;;;;;;24.73;15.40;;;;;;;;;;751527;186;919651;-73
2023/10/19 08:00:08;;;;;;;24.47;15.57;;;;;;;;;;744944;186;921270;-73
2023/10/19 08:02:34;;;;;;;16.97;13.50;;;;;;;;;;745951;185;916093;-73
2023/10/19 08:05:01;;;;;;;20.00;15.10;;;;;;;;;;749266;186;918989;-72
2023/10/19 08:07:27;;;;;;;14.53;10.93;;;;;;;;;;749022;187;933092;-72
2023/10/19 08:09:51;;;;;;;15.90;11.70;;;;;;;;;;744389;187;920030;-72
2023/10/19 08:12:17;;;;;;;17.00;11.10;;;;;;;;;;756355;186;622534;-72
2023/10/19 08:14:43;;;;;;;16.30;11.60;;;;;;;;;;744924;183;920606;-73
2023/10/19 08:17:09;;;;;;;14.23;11.65;;;;;;;;;;747829;187;918036;-72
2023/10/19 08:19:35;;;;;;;18.97;12.23;;;;;;;;;;745493;186;1021789;-71
2023/10/19 08:22:01;;;;;;;19.97;11.83;;;;;;;;;;744970;187;1017824;-72
2023/10/19 08:24:30;;;;;;;16.60;11.80;;;;;;;;;;752994;182;720201;-73
2023/10/19 08:26:53;;;;;;;15.20;11.53;;;;;;;;;;747038;187;930315;-72
2023/10/19 08:29:19;;;;;;;19.83;11.60;;;;;;;;;;751873;187;913676;-72
2023/10/19 08:31:45;;;;;;;15.37;12.00;;;;;;;;;;745273;185;917093;-72
2023/10/19 08:34:11;;;;;;;18.43;11.93;;;;;;;;;;744668;186;919981;-72
2023/10/19 08:36:38;;;;;;;15.30;11.40;;;;;;;;;;753726;187;920734;-73
2023/10/19 08:39:06;;;;;;;13.90;11.10;;;;;;;;;;745520;187;925614;-72
2023/10/19 08:41:32;;;;;;;16.40;12.20;;;;;;;;;;744589;187;1020025;-73
2023/10/19 08:43:58;;;;;;;15.57;11.93;;;;;;;;;;744473;186;907444;-72
2023/10/19 08:46:24;;;;;;;18.63;11.93;;;;;;;;;;751318;185;917599;-73
2023/10/19 08:48:49;;;;;;;17.23;12.07;;;;;;;;;;745381;186;917714;-73
2023/10/19 08:51:15;;;;;;;17.10;11.63;;;;;;;;;;745365;186;920022;-72
2023/10/19 08:53:41;;;;;;;19.43;12.40;;;;;;;;;;750462;185;921176;-73
2023/10/19 08:56:07;;;;;;;16.30;11.27;;;;;;;;;;741976;187;1019769;-72
2023/10/19 08:58:33;;;;;;;16.87;13.27;;;;;;;;;;745307;186;937419;-72
2023/10/19 09:01:06;;;;;;;17.10;12.30;;;;;;;;;;755162;186;915242;-73
2023/10/19 09:03:24;;;;;;;20.20;12.07;;;;;;;;;;748305;186;919641;-73
2023/10/19 09:05:50;;;;;;;17.17;11.93;;;;;;;;;;743861;185;917647;-73
2023/10/19 09:08:17;;;;;;;15.00;11.60;;;;;;;;;;746816;186;922822;-73
2023/10/19 09:10:43;;;;;;;21.83;13.27;;;;;;;;;;752804;185;917582;-72
2023/10/19 09:13:09;;;;;;;14.70;11.73;;;;;;;;;;744436;186;976360;-72
2023/10/19 09:15:35;;;;;;;13.40;10.93;;;;;;;;;;745857;185;914463;-71
2023/10/19 09:18:06;;;;;;;16.70;11.73;;;;;;;;;;748246;185;910304;-72
2023/10/19 09:20:32;;;;;;;17.97;12.97;;;;;;;;;;745056;185;920031;-72
2023/10/19 09:22:58;;;;;;;16.20;11.73;;;;;;;;;;745185;187;913621;-73
2023/10/19 09:25:24;;;;;;;17.42;12.30;;;;;;;;;;748026;186;1021658;-71
2023/10/19 09:27:50;;;;;;;16.10;12.47;;;;;;;;;;754484;183;1072119;-72
2023/10/19 09:30:18;;;;;;;17.70;12.47;;;;;;;;;;744841;185;1019731;-72
2023/10/19 09:32:44;;;;;;;15.80;12.17;;;;;;;;;;747299;186;926928;-72
2023/10/19 09:35:10;;;;;;;19.50;12.37;;;;;;;;;;751217;185;918460;-73
2023/10/19 09:37:36;;;;;;;18.50;13.43;;;;;;;;;;746490;185;916196;-73
2023/10/19 09:40:02;;;;;;;19.30;12.43;;;;;;;;;;745286;186;919147;-72
2023/10/19 09:42:28;;;;;;;22.93;14.07;;;;;;;;;;750656;186;637230;-71
2023/10/19 09:44:54;;;;;;;17.40;14.33;;;;;;;;;;744386;186;915108;-72
2023/10/19 09:47:22;;;;;;;19.97;14.17;;;;;;;;;;741998;185;916776;-72
2023/10/19 09:49:50;;;;;;;18.60;12.27;;;;;;;;;;744922;186;914912;-72
2023/10/19 09:52:14;;;;;;;18.57;13.30;;;;;;;;;;749796;187;924134;-74
2023/10/19 09:54:42;;;;;;;17.70;14.30;;;;;;;;;;748211;186;916971;-73
2023/10/19 09:57:06;;;;;;;17.47;13.70;;;;;;;;;;747149;186;918635;-73
2023/10/19 09:59:32;;;;;;;17.63;11.30;;;;;;;;;;748696;187;938085;-72
2023/10/19 10:02:02;;;;;;;18.60;14.00;;;;;;;;;;745984;185;918720;-73
2023/10/19 10:04:31;;;;;;;20.27;14.37;;;;;;;;;;743179;185;1222910;-72
2023/10/19 10:06:59;;;;;;;20.70;14.07;;;;;;;;;;745683;185;1123345;-72
2023/10/19 10:09:23;;;;;;;18.30;14.10;;;;;;;;;;752192;186;918708;-72
2023/10/19 10:11:49;;;;;;;17.93;14.27;;;;;;;;;;746227;186;920233;-72
2023/10/19 10:14:24;;;;;;;18.97;13.57;;;;;;;;;;744271;186;922385;-72
2023/10/19 10:16:51;;;;;;;22.33;14.30;;;;;;;;;;747791;185;917987;-71
2023/10/19 10:19:15;;;;;;;19.47;15.53;;;;;;;;;;750430;184;919249;-72
2023/10/19 10:21:41;;;;;;;26.33;15.93;;;;;;;;;;743980;185;918292;-72
2023/10/19 10:24:07;;;;;;;19.40;14.50;;;;;;;;;;742715;185;918928;-72
2023/10/19 10:26:36;;;;;;;15.33;13.70;;;;;;;;;;754890;186;919614;-72
2023/10/19 10:29:09;;;;;;;20.03;15.83;;;;;;;;;;744377;186;919030;-72
2023/10/19 10:31:33;;;;;;;21.15;14.05;;;;;;;;;;744191;187;919088;-72
2023/10/19 10:33:59;;;;;;;20.23;15.07;;;;;;;;;;747324;187;1019484;-71
2023/10/19 10:36:26;;;;;;;20.93;15.30;;;;;;;;;;754809;186;620830;-72
2023/10/19 10:38:51;;;;;;;18.13;14.43;;;;;;;;;;746684;186;917670;-73
2023/10/19 10:41:19;;;;;;;18.90;14.60;;;;;;;;;;747021;186;916609;-72
2023/10/19 10:43:49;;;;;;;20.03;14.63;;;;;;;;;;751627;187;919194;-72
2023/10/19 10:46:15;;;;;;;21.20;14.23;;;;;;;;;;744108;185;918044;-72
2023/10/19 10:48:41;;;;;;;22.80;15.40;;;;;;;;;;746928;186;918924;-73
2023/10/19 10:51:15;;;;;;;18.83;13.90;;;;;;;;;;744522;185;917611;-72
2023/10/19 10:53:39;;;;;;;23.23;15.43;;;;;;;;;;742970;187;919290;-73
2023/10/19 10:56:05;;;;;;;19.70;14.40;;;;;;;;;;743067;187;919657;-72
2023/10/19 10:58:31;;;;;;;19.30;14.37;;;;;;;;;;745729;187;920539;-72
2023/10/19 11:00:57;;;;;;;23.30;15.43;;;;;;;;;;751110;186;919318;-73
2023/10/19 11:03:24;;;;;;;16.90;13.17;;;;;;;;;;743388;187;918405;-72
2023/10/19 11:05:48;;;;;;;19.27;15.47;;;;;;;;;;746070;186;1020825;-72
2023/10/19 11:08:14;;;;;;;19.33;14.80;;;;;;;;;;747883;187;921889;-71
2023/10/19 11:10:42;;;;;;;23.50;14.07;;;;;;;;;;743739;186;919751;-72
2023/10/19 11:13:06;;;;;;;19.27;13.87;;;;;;;;;;744052;187;900182;-73
2023/10/19 11:15:32;;;;;;;24.50;15.60;;;;;;;;;;743690;186;919492;-72
2023/10/19 11:17:58;;;;;;;20.27;13.40;;;;;;;;;;751567;187;918651;-72
2023/10/19 11:20:24;;;;;;;16.67;13.27;;;;;;;;;;745325;185;1021374;-73
2023/10/19 11:22:50;;;;;;;18.98;14.80;;;;;;;;;;752604;186;627804;-72
2023/10/19 11:25:18;;;;;;;18.63;13.70;;;;;;;;;;756457;186;627095;-73
2023/10/19 11:27:43;;;;;;;17.07;13.50;;;;;;;;;;749620;185;633407;-72
2023/10/19 11:30:11;;;;;;;19.12;14.43;;;;;;;;;;742296;186;1019736;-72
2023/10/19 11:32:37;;;;;;;20.97;13.30;;;;;;;;;;749050;186;918020;-71
2023/10/19 11:35:01;;;;;;;20.50;14.00;;;;;;;;;;758398;183;626531;-73
2023/10/19 11:37:27;;;;;;;17.57;13.63;;;;;;;;;;744455;187;919317;-72
2023/10/19 11:39:53;;;;;;;17.93;13.33;;;;;;;;;;750067;186;641980;-72
2023/10/19 11:42:19;;;;;;;17.60;13.70;;;;;;;;;;752387;187;633972;-72
2023/10/19 11:44:45;;;;;;;20.77;13.17;;;;;;;;;;751697;185;632401;-73
2023/10/19 11:47:11;;;;;;;18.63;13.97;;;;;;;;;;745420;186;959679;-72
2023/10/19 11:49:37;;;;;;;17.70;13.00;;;;;;;;;;752161;187;916402;-73
2023/10/19 11:52:04;;;;;;;15.67;12.83;;;;;;;;;;745570;186;918089;-73
2023/10/19 11:54:31;;;;;;;16.90;12.87;;;;;;;;;;746349;182;1021323;-72
2023/10/19 11:56:56;;;;;;;21.10;14.32;;;;;;;;;;745219;186;919050;-72
2023/10/19 11:59:23;;;;;;;17.00;13.80;;;;;;;;;;756071;184;1021957;-73
2023/10/19 12:01:48;;;;;;;20.20;14.10;;;;;;;;;;745838;187;919392;-72
2023/10/19 12:04:14;;;;;;;25.67;13.93;;;;;;;;;;743755;187;918804;-72
2023/10/19 12:06:39;;;;;;;18.07;14.33;;;;;;;;;;752605;183;918870;-73
2023/10/19 12:09:14;;;;;;;25.30;15.27;;;;;;;;;;748504;187;926316;-73
2023/10/19 12:11:32;;;;;;;18.83;13.13;;;;;;;;;;748176;185;920514;-73
2023/10/19 12:13:59;;;;;;;21.20;14.17;;;;;;;;;;753802;187;919156;-74
2023/10/19 12:16:24;;;;;;;19.27;12.87;;;;;;;;;;745095;186;918958;-73
2023/10/19 12:18:50;;;;;;;18.15;11.68;;;;;;;;;;744205;187;937901;-72
2023/10/19 12:21:17;;;;;;;16.37;12.20;;;;;;;;;;751896;185;919145;-73
2023/10/19 12:23:41;;;;;;;21.93;13.60;;;;;;;;;;745281;185;922087;-72
2023/10/19 12:26:11;;;;;;;14.80;12.03;;;;;;;;;;745115;185;914890;-72
2023/10/19 12:28:38;;;;;;;16.13;12.87;;;;;;;;;;745478;186;916276;-72
2023/10/19 12:31:11;;;;;;;17.80;12.70;;;;;;;;;;748912;187;926296;-74
2023/10/19 12:33:38;;;;;;;16.40;13.87;;;;;;;;;;749136;186;914763;-73
2023/10/19 12:36:21;;;;;;;13.70;12.17;;;;;;;;;;745515;186;913279;-74
2023/10/19 12:38:29;;;;;;;18.00;12.50;;;;;;;;;;747070;186;981573;-73
2023/10/19 12:40:54;;;;;;;19.33;11.43;;;;;;;;;;754205;183;917851;-73
2023/10/19 12:43:23;;;;;;;16.43;12.20;;;;;;;;;;748324;185;918544;-73
2023/10/19 12:45:53;;;;;;;18.90;12.50;;;;;;;;;;745421;185;919136;-73
2023/10/19 12:48:16;;;;;;;14.60;11.23;;;;;;;;;;750101;186;918833;-73
2023/10/19 12:50:42;;;;;;;15.03;12.70;;;;;;;;;;742691;186;1020431;-73
2023/10/19 12:53:08;;;;;;;15.70;12.47;;;;;;;;;;745663;186;921553;-73
2023/10/19 12:55:37;;;;;;;15.77;12.30;;;;;;;;;;747528;186;921233;-73
2023/10/19 12:58:07;;;;;;;15.10;11.83;;;;;;;;;;742266;187;919159;-73
2023/10/19 13:00:29;;;;;;;16.40;12.33;;;;;;;;;;745124;186;918803;-72
2023/10/19 13:03:03;;;;;;;14.18;11.82;;;;;;;;;;744693;185;1123857;-73
2023/10/19 13:05:32;;;;;;;15.73;11.75;;;;;;;;;;750031;186;919150;-73
2023/10/19 13:07:58;;;;;;;15.20;11.90;;;;;;;;;;742479;189;816810;-73
2023/10/19 13:10:24;;;;;;;16.27;12.30;;;;;;;;;;742188;187;1014849;-73
2023/10/19 13:12:49;;;;;;;14.70;12.20;;;;;;;;;;743306;186;921015;-73
2023/10/19 13:15:15;;;;;;;17.83;12.07;;;;;;;;;;751921;187;817225;-74
2023/10/19 13:17:42;;;;;;;20.90;13.93;;;;;;;;;;742259;186;917319;-73
2023/10/19 13:20:23;;;;;;;20.37;12.90;;;;;;;;;;748341;187;827339;-74
2023/10/19 13:22:48;;;;;;;17.37;12.52;;;;;;;;;;746431;187;919333;-72
2023/10/19 13:25:16;;;;;;;16.00;12.20;;;;;;;;;;752133;187;919443;-73
2023/10/19 13:27:41;;;;;;;16.30;12.33;;;;;;;;;;749250;185;919219;-74
2023/10/19 13:30:10;;;;;;;21.90;14.23;;;;;;;;;;750357;186;919616;-73
2023/10/19 13:32:34;;;;;;;21.10;12.97;;;;;;;;;;747579;185;926915;-72
2023/10/19 13:34:59;;;;;;;14.83;12.73;;;;;;;;;;749370;187;696426;-72
2023/10/19 13:37:26;;;;;;;18.83;12.70;;;;;;;;;;746954;187;919297;-73
2023/10/19 13:39:51;;;;;;;16.07;11.97;;;;;;;;;;745813;186;1021488;-72
2023/10/19 13:42:17;;;;;;;18.53;13.67;;;;;;;;;;752982;187;919168;-73
2023/10/19 13:44:43;;;;;;;20.20;13.47;;;;;;;;;;749352;185;626176;-72
2023/10/19 13:47:11;;;;;;;17.55;13.48;;;;;;;;;;751832;185;918018;-73
2023/10/19 13:49:35;;;;;;;16.20;13.37;;;;;;;;;;752935;186;918053;-72
2023/10/19 13:52:04;;;;;;;16.20;12.67;;;;;;;;;;747033;186;916661;-74
2023/10/19 13:54:28;;;;;;;17.80;14.23;;;;;;;;;;746328;185;912756;-73
2023/10/19 13:56:53;;;;;;;20.07;13.33;;;;;;;;;;752841;185;919532;-72
2023/10/19 13:59:19;;;;;;;19.10;13.53;;;;;;;;;;743417;186;919475;-72
2023/10/19 14:01:45;;;;;;;18.37;13.73;;;;;;;;;;749348;186;918910;-73
2023/10/19 14:04:13;;;;;;;18.60;13.47;;;;;;;;;;744884;187;918295;-72
2023/10/19 14:06:37;;;;;;;19.20;13.90;;;;;;;;;;748899;183;1030601;-72